RoSS Sea — WDE3122 — position and weather

sailwx.info

Track history (hours):
 
Tides and Currents Weather Stations Pressure Air Temp Water Temp Dewpoint Dewpoint Depression Visibility Wind Speed Wind Dir Waves Ship Positions

RoSS Sea

Owner: Kirby Inland Marine, LP, Houston, TX. More information available from US FCC via Universal Licensing System and Coast Guard Vessel Documentation Center.

Last reported at 2014-Oct-31 07:33 UTC. Time now 2014-Oct-31 08:29 UTC.
Position N 39°43' W 075°31'.

Length 30 m; draft 5 m.

Type: Towing. MMSI: 367334360.

Date/timePositionNaut miles runAvg speedWind from/ knotsBaromVisibWave heightAir tempDewpointWater temp
2014-Oct-31 07:33N 39°43' W 075°31'0 0.0
2014-Oct-31 06:33N 39°43' W 075°31'0 0.0
2014-Oct-31 05:33N 39°43' W 075°31'0 0.0
2014-Oct-31 04:33N 39°43' W 075°31'0 0.0
2014-Oct-31 03:33N 39°43' W 075°31'0 0.0
2014-Oct-31 02:33N 39°43' W 075°31'0 0.0
2014-Oct-31 01:33N 39°43' W 075°31'0 0.0
2014-Oct-31 00:33N 39°43' W 075°31'0 0.0
2014-Oct-30 23:33N 39°43' W 075°31'0 0.0
2014-Oct-30 22:33N 39°43' W 075°31'0 0.0
2014-Oct-30 21:33N 39°43' W 075°31'0 0.0
2014-Oct-30 20:33N 39°43' W 075°31'0 0.0
2014-Oct-30 19:33N 39°43' W 075°31'0 0.0
2014-Oct-30 18:33N 39°43' W 075°31'0 0.0
2014-Oct-30 17:33N 39°43' W 075°31'0 0.0
2014-Oct-30 16:33N 39°43' W 075°31'0 0.0
2014-Oct-30 15:33N 39°43' W 075°31'0 0.0
2014-Oct-30 14:33N 39°43' W 075°31'0 0.0
2014-Oct-30 13:33N 39°43' W 075°31'0 0.0
2014-Oct-30 12:33N 39°43' W 075°31'0 0.0
2014-Oct-30 11:33N 39°43' W 075°31'0 0.0
2014-Oct-30 10:33N 39°43' W 075°31'0 0.0
2014-Oct-30 09:33N 39°43' W 075°31'0 0.0
2014-Oct-30 08:33N 39°43' W 075°31'0 0.0
2014-Oct-30 07:33N 39°43' W 075°31'1 0.9
2014-Oct-30 06:33N 39°42' W 075°31'6 6.1
2014-Oct-30 05:33N 39°37' W 075°35'9 8.7
2014-Oct-30 04:33N 39°28' W 075°33'9 8.6
2014-Oct-30 03:33N 39°21' W 075°27'62 4.8
2014-Oct-29 14:32N 39°31' W 074°07'8 7.9
2014-Oct-29 13:33N 39°38' W 074°03'8 7.9
2014-Oct-29 12:32N 39°45' W 073°59'25 8.0
2014-Oct-29 09:25N 40°10' W 073°54'8 8.2
2014-Oct-29 08:29N 40°18' W 073°54'9 8.3
2014-Oct-29 07:27N 40°26' W 073°54'5 5.2
2014-Oct-29 06:33N 40°30' W 073°57'7 7.2
2014-Oct-29 05:33N 40°36' W 074°03'4 3.8
2014-Oct-29 04:33N 40°39' W 074°06'1 0.8
2014-Oct-29 03:33N 40°39' W 074°07'0 0.0
2014-Oct-29 02:33N 40°39' W 074°07'0 0.0
2014-Oct-29 01:33N 40°39' W 074°07'2 2.2
2014-Oct-29 00:33N 40°39' W 074°10'1 0.3
2014-Oct-28 20:33N 40°39' W 074°09'1 1.0
2014-Oct-28 19:32N 40°38' W 074°10'0 0.0
2014-Oct-28 18:21N 40°38' W 074°10'2 2.0
2014-Oct-28 17:33N 40°39' W 074°08'2 2.2
2014-Oct-28 16:33N 40°39' W 074°05'1 1.0
2014-Oct-28 15:33N 40°39' W 074°04'5 4.4
2014-Oct-28 14:28N 40°38' W 074°10'0 0.0
2014-Oct-28 12:20N 40°38' W 074°10'0 0.0
2014-Oct-28 10:33N 40°38' W 074°10'0 0.0
2014-Oct-28 09:33N 40°38' W 074°10'0 0.0
2014-Oct-28 08:31N 40°38' W 074°10'0 0.0
2014-Oct-28 07:33N 40°38' W 074°10'0 0.0
2014-Oct-28 06:30N 40°38' W 074°10'0 0.0
2014-Oct-28 05:33N 40°38' W 074°10'0 0.0
2014-Oct-28 04:31N 40°38' W 074°10'0 0.0
2014-Oct-28 03:33N 40°38' W 074°10'0 0.0
2014-Oct-28 00:32N 40°38' W 074°10'2 1.2
2014-Oct-27 23:06N 40°38' W 074°12'2 3.4
2014-Oct-27 22:32N 40°36' W 074°12'2 2.3
2014-Oct-27 21:33N 40°38' W 074°12'1 1.4
2014-Oct-27 20:33N 40°38' W 074°10'0 0.0
2014-Oct-27 19:32N 40°38' W 074°10'0 0.0
2014-Oct-27 18:30N 40°38' W 074°10'0 0.0
2014-Oct-27 17:33N 40°38' W 074°10'0 0.0
2014-Oct-27 16:33N 40°38' W 074°10'0 0.0
2014-Oct-27 15:34N 40°38' W 074°10'4 4.2
2014-Oct-27 14:34N 40°39' W 074°04'4 4.2
2014-Oct-27 13:34N 40°38' W 074°10'0 0.0
2014-Oct-27 12:34N 40°38' W 074°10'0 0.0
2014-Oct-27 11:34N 40°38' W 074°10'0 0.0
2014-Oct-27 08:26N 40°38' W 074°10'0 0.0
2014-Oct-27 06:34N 40°38' W 074°10'2 1.6
2014-Oct-27 05:23N 40°38' W 074°12'2 2.3
2014-Oct-27 04:34N 40°39' W 074°10'0 0.0
2014-Oct-27 03:33N 40°38' W 074°10'0 0.0
2014-Oct-27 01:22N 40°38' W 074°10'0 0.0
2014-Oct-26 22:33N 40°38' W 074°10'0 0.0
2014-Oct-26 21:33N 40°38' W 074°10'0 0.0
2014-Oct-26 18:33N 40°38' W 074°10'0 0.3
2014-Oct-26 17:33N 40°38' W 074°10'0 0.1
2014-Oct-26 15:32N 40°38' W 074°10'0 0.0
2014-Oct-26 14:23N 40°38' W 074°10'0 0.0
2014-Oct-26 12:34N 40°38' W 074°10'0 0.0
2014-Oct-26 11:33N 40°38' W 074°10'0 0.0
2014-Oct-26 10:33N 40°38' W 074°10'0 0.0
2014-Oct-26 09:30N 40°38' W 074°10'0 0.0
2014-Oct-26 08:34N 40°38' W 074°10'7 3.2
2014-Oct-26 06:16N 40°32' W 074°15'0 0.0
2014-Oct-25 23:30N 40°32' W 074°15'0 0.0
2014-Oct-25 22:33N 40°32' W 074°15'0 0.0
2014-Oct-25 18:31N 40°32' W 074°15'0 0.0
2014-Oct-25 17:17N 40°32' W 074°15'0 0.0
2014-Oct-25 16:33N 40°32' W 074°15'0 0.0
2014-Oct-25 15:12N 40°32' W 074°15'0 0.0
2014-Oct-25 14:33N 40°32' W 074°15'0 0.2
2014-Oct-25 13:11N 40°32' W 074°15'3 4.3
2014-Oct-25 12:33N 40°34' W 074°13'5 5.0
2014-Oct-25 11:33N 40°39' W 074°10'0 0.3
2014-Oct-25 10:33N 40°38' W 074°10'0 0.0
2014-Oct-25 06:32N 40°38' W 074°10'0 0.0
2014-Oct-25 01:09N 40°38' W 074°10'0 0.0
2014-Oct-25 00:33N 40°38' W 074°10'0 0.0
2014-Oct-24 20:29N 40°38' W 074°10'4 2.2
2014-Oct-24 18:28N 40°35' W 074°13'4 1.5
2014-Oct-24 15:33N 40°38' W 074°10'0 0.2
2014-Oct-24 14:34N 40°38' W 074°10'0 0.0
2014-Oct-24 13:33N 40°38' W 074°10'0 0.0
2014-Oct-24 12:33N 40°38' W 074°10'0 0.0
2014-Oct-24 11:34N 40°38' W 074°10'0 0.0
2014-Oct-24 10:33N 40°38' W 074°10'0 0.0
2014-Oct-24 09:34N 40°38' W 074°10'0 0.0
2014-Oct-24 08:33N 40°38' W 074°10'0 0.0
2014-Oct-24 07:33N 40°38' W 074°10'0 0.0
2014-Oct-24 06:34N 40°38' W 074°10'0 0.0
2014-Oct-24 05:34N 40°38' W 074°10'0 0.0
2014-Oct-24 04:34N 40°38' W 074°10'0 0.0
2014-Oct-24 03:34N 40°38' W 074°10'0 0.0
2014-Oct-24 01:34N 40°39' W 074°10'0 0.1
2014-Oct-24 00:33N 40°39' W 074°10'0 0.1
2014-Oct-23 23:33N 40°38' W 074°10'0 0.0
2014-Oct-23 21:07N 40°38' W 074°10'0 0.0
2014-Oct-23 20:26N 40°38' W 074°10'0 0.1
2014-Oct-23 19:33N 40°39' W 074°10'0 0.0
2014-Oct-23 18:33N 40°39' W 074°10'0 0.0
2014-Oct-23 17:32N 40°39' W 074°10'4 4.5
2014-Oct-23 16:33N 40°39' W 074°04'4 4.0
2014-Oct-23 15:28N 40°38' W 074°10'0 0.0
2014-Oct-23 14:33N 40°38' W 074°10'0 0.0
2014-Oct-23 13:33N 40°38' W 074°10'0 0.0
2014-Oct-23 12:33N 40°38' W 074°10'0 0.0
2014-Oct-23 11:33N 40°38' W 074°10'0 0.0
2014-Oct-23 10:32N 40°38' W 074°10'0 0.0
2014-Oct-23 09:33N 40°38' W 074°10'0 0.0
2014-Oct-23 08:26N 40°38' W 074°10'0 0.0
2014-Oct-23 07:30N 40°38' W 074°10'0 0.0
2014-Oct-23 06:33N 40°38' W 074°10'0 0.0
2014-Oct-23 05:31N 40°38' W 074°10'0 0.0
2014-Oct-23 04:32N 40°38' W 074°10'0 0.0
2014-Oct-23 03:21N 40°38' W 074°10'3 4.0
2014-Oct-23 02:33N 40°39' W 074°06'3 3.2
2014-Oct-23 01:33N 40°39' W 074°10'0 0.0
2014-Oct-23 00:34N 40°38' W 074°10'0 0.0
2014-Oct-22 23:34N 40°38' W 074°10'0 0.0
2014-Oct-22 22:31N 40°39' W 074°10'3 2.6
2014-Oct-22 21:33N 40°39' W 074°07'3 2.5
2014-Oct-22 20:34N 40°38' W 074°10'0 0.0
2014-Oct-22 19:34N 40°38' W 074°10'0 0.0
2014-Oct-22 18:33N 40°38' W 074°10'0 0.0
2014-Oct-22 17:34N 40°38' W 074°10'0 0.0
2014-Oct-22 16:33N 40°38' W 074°10'0 0.0
2014-Oct-22 15:33N 40°38' W 074°10'0 0.0
2014-Oct-22 14:34N 40°38' W 074°10'0 0.0
2014-Oct-22 13:33N 40°38' W 074°10'0 0.0
2014-Oct-22 12:33N 40°38' W 074°10'0 0.0
2014-Oct-22 11:33N 40°38' W 074°10'0 0.0
2014-Oct-22 10:33N 40°38' W 074°10'0 0.0
2014-Oct-22 09:33N 40°38' W 074°10'0 0.0
2014-Oct-22 08:33N 40°38' W 074°10'0 0.0
2014-Oct-22 07:33N 40°38' W 074°10'0 0.0
2014-Oct-22 06:33N 40°38' W 074°10'0 0.1
2014-Oct-22 05:33N 40°39' W 074°10'0 0.0
2014-Oct-22 03:30N 40°39' W 074°10'0 0.0
2014-Oct-22 02:33N 40°39' W 074°10'0 0.0
2014-Oct-22 01:13N 40°39' W 074°10'5 8.2
2014-Oct-22 00:33N 40°40' W 074°03'10 9.4
2014-Oct-21 23:29N 40°49' W 073°58'0 0.0
2014-Oct-21 21:33N 40°49' W 073°58'1010.0
2014-Oct-21 20:33N 40°40' W 074°03'5 2.2
2014-Oct-21 18:08N 40°39' W 074°10'0 0.0
2014-Oct-21 17:23N 40°39' W 074°10'0 0.0
2014-Oct-21 16:33N 40°39' W 074°10'3 0.7
2014-Oct-21 12:12N 40°36' W 074°12'4 6.1
2014-Oct-21 11:33N 40°39' W 074°08'2 1.7
2014-Oct-21 10:33N 40°39' W 074°06'0 0.0
2014-Oct-21 09:33N 40°39' W 074°06'0 0.0
2014-Oct-21 08:30N 40°39' W 074°06'  
Track history (hours):
 
Tides and Currents Weather Stations Pressure Air Temp Water Temp Dewpoint Dewpoint Depression Visibility Wind Speed Wind Dir Waves Ship Positions

RoSS Sea

Owner: Kirby Inland Marine, LP, Houston, TX. More information available from US FCC via Universal Licensing System and Coast Guard Vessel Documentation Center.

Last reported at 2014-Oct-31 07:33 UTC. Time now 2014-Oct-31 08:29 UTC.
Position N 39°43' W 075°31'.

Length 30 m; draft 5 m.

Type: Towing. MMSI: 367334360.

Date/timePositionNaut miles runAvg speedWind from/ knotsBaromVisibWave heightAir tempDewpointWater temp
2014-Oct-31 07:33N 39°43' W 075°31'0 0.0
2014-Oct-31 06:33N 39°43' W 075°31'0 0.0
2014-Oct-31 05:33N 39°43' W 075°31'0 0.0
2014-Oct-31 04:33N 39°43' W 075°31'0 0.0
2014-Oct-31 03:33N 39°43' W 075°31'0 0.0
2014-Oct-31 02:33N 39°43' W 075°31'0 0.0
2014-Oct-31 01:33N 39°43' W 075°31'0 0.0
2014-Oct-31 00:33N 39°43' W 075°31'0 0.0
2014-Oct-30 23:33N 39°43' W 075°31'0 0.0
2014-Oct-30 22:33N 39°43' W 075°31'0 0.0
2014-Oct-30 21:33N 39°43' W 075°31'0 0.0
2014-Oct-30 20:33N 39°43' W 075°31'0 0.0
2014-Oct-30 19:33N 39°43' W 075°31'0 0.0
2014-Oct-30 18:33N 39°43' W 075°31'0 0.0
2014-Oct-30 17:33N 39°43' W 075°31'0 0.0
2014-Oct-30 16:33N 39°43' W 075°31'0 0.0
2014-Oct-30 15:33N 39°43' W 075°31'0 0.0
2014-Oct-30 14:33N 39°43' W 075°31'0 0.0
2014-Oct-30 13:33N 39°43' W 075°31'0 0.0
2014-Oct-30 12:33N 39°43' W 075°31'0 0.0
2014-Oct-30 11:33N 39°43' W 075°31'0 0.0
2014-Oct-30 10:33N 39°43' W 075°31'0 0.0
2014-Oct-30 09:33N 39°43' W 075°31'0 0.0
2014-Oct-30 08:33N 39°43' W 075°31'0 0.0
2014-Oct-30 07:33N 39°43' W 075°31'1 0.9
2014-Oct-30 06:33N 39°42' W 075°31'6 6.1
2014-Oct-30 05:33N 39°37' W 075°35'9 8.7
2014-Oct-30 04:33N 39°28' W 075°33'9 8.6
2014-Oct-30 03:33N 39°21' W 075°27'62 4.8
2014-Oct-29 14:32N 39°31' W 074°07'8 7.9
2014-Oct-29 13:33N 39°38' W 074°03'8 7.9
2014-Oct-29 12:32N 39°45' W 073°59'25 8.0
2014-Oct-29 09:25N 40°10' W 073°54'8 8.2
2014-Oct-29 08:29N 40°18' W 073°54'9 8.3
2014-Oct-29 07:27N 40°26' W 073°54'5 5.2
2014-Oct-29 06:33N 40°30' W 073°57'7 7.2
2014-Oct-29 05:33N 40°36' W 074°03'4 3.8
2014-Oct-29 04:33N 40°39' W 074°06'1 0.8
2014-Oct-29 03:33N 40°39' W 074°07'0 0.0
2014-Oct-29 02:33N 40°39' W 074°07'0 0.0
2014-Oct-29 01:33N 40°39' W 074°07'2 2.2
2014-Oct-29 00:33N 40°39' W 074°10'1 0.3
2014-Oct-28 20:33N 40°39' W 074°09'1 1.0
2014-Oct-28 19:32N 40°38' W 074°10'0 0.0
2014-Oct-28 18:21N 40°38' W 074°10'2 2.0
2014-Oct-28 17:33N 40°39' W 074°08'2 2.2
2014-Oct-28 16:33N 40°39' W 074°05'1 1.0
2014-Oct-28 15:33N 40°39' W 074°04'5 4.4
2014-Oct-28 14:28N 40°38' W 074°10'0 0.0
2014-Oct-28 12:20N 40°38' W 074°10'0 0.0
2014-Oct-28 10:33N 40°38' W 074°10'0 0.0
2014-Oct-28 09:33N 40°38' W 074°10'0 0.0
2014-Oct-28 08:31N 40°38' W 074°10'0 0.0
2014-Oct-28 07:33N 40°38' W 074°10'0 0.0
2014-Oct-28 06:30N 40°38' W 074°10'0 0.0
2014-Oct-28 05:33N 40°38' W 074°10'0 0.0
2014-Oct-28 04:31N 40°38' W 074°10'0 0.0
2014-Oct-28 03:33N 40°38' W 074°10'0 0.0
2014-Oct-28 00:32N 40°38' W 074°10'2 1.2
2014-Oct-27 23:06N 40°38' W 074°12'2 3.4
2014-Oct-27 22:32N 40°36' W 074°12'2 2.3
2014-Oct-27 21:33N 40°38' W 074°12'1 1.4
2014-Oct-27 20:33N 40°38' W 074°10'0 0.0
2014-Oct-27 19:32N 40°38' W 074°10'0 0.0
2014-Oct-27 18:30N 40°38' W 074°10'0 0.0
2014-Oct-27 17:33N 40°38' W 074°10'0 0.0
2014-Oct-27 16:33N 40°38' W 074°10'0 0.0
2014-Oct-27 15:34N 40°38' W 074°10'4 4.2
2014-Oct-27 14:34N 40°39' W 074°04'4 4.2
2014-Oct-27 13:34N 40°38' W 074°10'0 0.0
2014-Oct-27 12:34N 40°38' W 074°10'0 0.0
2014-Oct-27 11:34N 40°38' W 074°10'0 0.0
2014-Oct-27 08:26N 40°38' W 074°10'0 0.0
2014-Oct-27 06:34N 40°38' W 074°10'2 1.6
2014-Oct-27 05:23N 40°38' W 074°12'2 2.3
2014-Oct-27 04:34N 40°39' W 074°10'0 0.0
2014-Oct-27 03:33N 40°38' W 074°10'0 0.0
2014-Oct-27 01:22N 40°38' W 074°10'0 0.0
2014-Oct-26 22:33N 40°38' W 074°10'0 0.0
2014-Oct-26 21:33N 40°38' W 074°10'0 0.0
2014-Oct-26 18:33N 40°38' W 074°10'0 0.3
2014-Oct-26 17:33N 40°38' W 074°10'0 0.1
2014-Oct-26 15:32N 40°38' W 074°10'0 0.0
2014-Oct-26 14:23N 40°38' W 074°10'0 0.0
2014-Oct-26 12:34N 40°38' W 074°10'0 0.0
2014-Oct-26 11:33N 40°38' W 074°10'0 0.0
2014-Oct-26 10:33N 40°38' W 074°10'0 0.0
2014-Oct-26 09:30N 40°38' W 074°10'0 0.0
2014-Oct-26 08:34N 40°38' W 074°10'7 3.2
2014-Oct-26 06:16N 40°32' W 074°15'0 0.0
2014-Oct-25 23:30N 40°32' W 074°15'0 0.0
2014-Oct-25 22:33N 40°32' W 074°15'0 0.0
2014-Oct-25 18:31N 40°32' W 074°15'0 0.0
2014-Oct-25 17:17N 40°32' W 074°15'0 0.0
2014-Oct-25 16:33N 40°32' W 074°15'0 0.0
2014-Oct-25 15:12N 40°32' W 074°15'0 0.0
2014-Oct-25 14:33N 40°32' W 074°15'0 0.2
2014-Oct-25 13:11N 40°32' W 074°15'3 4.3
2014-Oct-25 12:33N 40°34' W 074°13'5 5.0
2014-Oct-25 11:33N 40°39' W 074°10'0 0.3
2014-Oct-25 10:33N 40°38' W 074°10'0 0.0
2014-Oct-25 06:32N 40°38' W 074°10'0 0.0
2014-Oct-25 01:09N 40°38' W 074°10'0 0.0
2014-Oct-25 00:33N 40°38' W 074°10'0 0.0
2014-Oct-24 20:29N 40°38' W 074°10'4 2.2
2014-Oct-24 18:28N 40°35' W 074°13'4 1.5
2014-Oct-24 15:33N 40°38' W 074°10'0 0.2
2014-Oct-24 14:34N 40°38' W 074°10'0 0.0
2014-Oct-24 13:33N 40°38' W 074°10'0 0.0
2014-Oct-24 12:33N 40°38' W 074°10'0 0.0
2014-Oct-24 11:34N 40°38' W 074°10'0 0.0
2014-Oct-24 10:33N 40°38' W 074°10'0 0.0
2014-Oct-24 09:34N 40°38' W 074°10'0 0.0
2014-Oct-24 08:33N 40°38' W 074°10'0 0.0
2014-Oct-24 07:33N 40°38' W 074°10'0 0.0
2014-Oct-24 06:34N 40°38' W 074°10'0 0.0
2014-Oct-24 05:34N 40°38' W 074°10'0 0.0
2014-Oct-24 04:34N 40°38' W 074°10'0 0.0
2014-Oct-24 03:34N 40°38' W 074°10'0 0.0
2014-Oct-24 01:34N 40°39' W 074°10'0 0.1
2014-Oct-24 00:33N 40°39' W 074°10'0 0.1
2014-Oct-23 23:33N 40°38' W 074°10'0 0.0
2014-Oct-23 21:07N 40°38' W 074°10'0 0.0
2014-Oct-23 20:26N 40°38' W 074°10'0 0.1
2014-Oct-23 19:33N 40°39' W 074°10'0 0.0
2014-Oct-23 18:33N 40°39' W 074°10'0 0.0
2014-Oct-23 17:32N 40°39' W 074°10'4 4.5
2014-Oct-23 16:33N 40°39' W 074°04'4 4.0
2014-Oct-23 15:28N 40°38' W 074°10'0 0.0
2014-Oct-23 14:33N 40°38' W 074°10'0 0.0
2014-Oct-23 13:33N 40°38' W 074°10'0 0.0
2014-Oct-23 12:33N 40°38' W 074°10'0 0.0
2014-Oct-23 11:33N 40°38' W 074°10'0 0.0
2014-Oct-23 10:32N 40°38' W 074°10'0 0.0
2014-Oct-23 09:33N 40°38' W 074°10'0 0.0
2014-Oct-23 08:26N 40°38' W 074°10'0 0.0
2014-Oct-23 07:30N 40°38' W 074°10'0 0.0
2014-Oct-23 06:33N 40°38' W 074°10'0 0.0
2014-Oct-23 05:31N 40°38' W 074°10'0 0.0
2014-Oct-23 04:32N 40°38' W 074°10'0 0.0
2014-Oct-23 03:21N 40°38' W 074°10'3 4.0
2014-Oct-23 02:33N 40°39' W 074°06'3 3.2
2014-Oct-23 01:33N 40°39' W 074°10'0 0.0
2014-Oct-23 00:34N 40°38' W 074°10'0 0.0
2014-Oct-22 23:34N 40°38' W 074°10'0 0.0
2014-Oct-22 22:31N 40°39' W 074°10'3 2.6
2014-Oct-22 21:33N 40°39' W 074°07'3 2.5
2014-Oct-22 20:34N 40°38' W 074°10'0 0.0
2014-Oct-22 19:34N 40°38' W 074°10'0 0.0
2014-Oct-22 18:33N 40°38' W 074°10'0 0.0
2014-Oct-22 17:34N 40°38' W 074°10'0 0.0
2014-Oct-22 16:33N 40°38' W 074°10'0 0.0
2014-Oct-22 15:33N 40°38' W 074°10'0 0.0
2014-Oct-22 14:34N 40°38' W 074°10'0 0.0
2014-Oct-22 13:33N 40°38' W 074°10'0 0.0
2014-Oct-22 12:33N 40°38' W 074°10'0 0.0
2014-Oct-22 11:33N 40°38' W 074°10'0 0.0
2014-Oct-22 10:33N 40°38' W 074°10'0 0.0
2014-Oct-22 09:33N 40°38' W 074°10'0 0.0
2014-Oct-22 08:33N 40°38' W 074°10'0 0.0
2014-Oct-22 07:33N 40°38' W 074°10'0 0.0
2014-Oct-22 06:33N 40°38' W 074°10'0 0.1
2014-Oct-22 05:33N 40°39' W 074°10'0 0.0
2014-Oct-22 03:30N 40°39' W 074°10'0 0.0
2014-Oct-22 02:33N 40°39' W 074°10'0 0.0
2014-Oct-22 01:13N 40°39' W 074°10'5 8.2
2014-Oct-22 00:33N 40°40' W 074°03'10 9.4
2014-Oct-21 23:29N 40°49' W 073°58'0 0.0
2014-Oct-21 21:33N 40°49' W 073°58'1010.0
2014-Oct-21 20:33N 40°40' W 074°03'5 2.2
2014-Oct-21 18:08N 40°39' W 074°10'0 0.0
2014-Oct-21 17:23N 40°39' W 074°10'0 0.0
2014-Oct-21 16:33N 40°39' W 074°10'3 0.7
2014-Oct-21 12:12N 40°36' W 074°12'4 6.1
2014-Oct-21 11:33N 40°39' W 074°08'2 1.7
2014-Oct-21 10:33N 40°39' W 074°06'0 0.0
2014-Oct-21 09:33N 40°39' W 074°06'0 0.0
2014-Oct-21 08:30N 40°39' W 074°06'  

Dump ship's entire track history